AirNav   Air Wisconsin Up To $57,000 Bonus
 
 1019 users online  

17TX Kimzey Airport
Stephenville, Texas, USA

GOING TO STEPHENVILLE?


FAA INFORMATION EFFECTIVE 31 DECEMBER 2020

Location

FAA Identifier: 17TX
Lat/Long: 32-26-55.4810N 098-15-18.1600W
32-26.924683N 098-15.302667W
32.4487447,-98.2550444
(estimated)
Elevation: 1100 ft. / 335 m (estimated)
Variation: 07E (1985)
From city: 12 miles N of STEPHENVILLE, TX
Time zone: UTC -6 (UTC -5 during Daylight Saving Time)
Zip code: 76401

Airport Operations

Airport use: Private use. Permission required prior to landing
Activation date: 10/1976
Control tower: no
ARTCC: FORT WORTH CENTER
FSS: FORT WORTH FLIGHT SERVICE STATION
Attendance: CONTINUOUS
Wind indicator: yes
Segmented circle: no

Airport Communications

WX AWOS-3 at SEP (15 nm S): 118.075 (254-965-8672)

Nearby radio navigation aids

VOR radial/distance  VOR name  Freq  Var
MQPr209/21.1MILLSAP VORTAC117.7009E

Airport Services

Runway Information

Runway 17/35

Dimensions: 3200 x 30 ft. / 975 x 9 m
Surface: asphalt
RUNWAY 17  RUNWAY 35
Traffic pattern: leftleft

Airport Ownership and Management from official FAA records

Ownership: Privately-owned
Owner: KIMZEY RANCH
2578 N COUNTY RD 318
STEPHENVILLE, TX 76401
Phone 254-968-4994
Manager: JOHN P. KIMZEY
2578 N COUNTY RD 318
STEPHENVILLE, TX 76401
Phone 254-968-4994

Additional Remarks

FOR CD CTC FORT WORTH ARTCC AT 817-858-7584.

Instrument Procedures

There are no published instrument procedures at 17TX.

Some nearby airports with instrument procedures:

KSEP - Stephenville Clark Regional Airport (15 nm S)
KGDJ - Granbury Regional Airport (22 nm E)
KMWL - Mineral Wells Regional Airport (22 nm NE)
KETN - Eastland Municipal Airport (28 nm W)
F35 - Possum Kingdom Airport (30 nm N)
 
Loc | Ops | Rwys | IFR | FBO | Links
Com | Nav | Svcs | Stats | Notes

City of Fort Worth
 
Area around 17TX (Kimzey Airport)
 
Road maps at: MapQuest Bing Google
 
Aerial photo
No photo
 
Sectional chart

 
Airport distance calculator
Flying to Kimzey Airport? Find the distance to fly.

From to 17TX

Sunrise and sunset
Times for 23-Jan-2021
 Local
(UTC-6)
 Zulu
(UTC)
Morning civil twilight07:0713:07
Sunrise07:3313:33
Sunset17:5723:57
Evening civil twilight18:2300:23

Current date and time
Zulu (UTC)  23-Jan-2021 23:05:25
Local (UTC-6)  23-Jan-2021 17:05:25
 
METAR
KSEP 
15nm S 
232255Z AUTO 15007KT 5SM OVC005 12/10 A2998 RMK AO2 T01200104
KGDJ 
22nm E 
AWOS-3 118.925 817-573-7514
232255Z AUTO 15005KT 10SM OVC008 13/11 A2998 RMK AO2 T01340110
KMWL 
22nm NE 
232253Z AUTO 14007KT 6SM BR OVC007 12/10 A2993 RMK AO2 SLP133 T01170100
KETN 
28nm W 
232255Z AUTO 15008KT 10SM OVC010 11/10 A2993 RMK AO2 T01130097
TAF
KNFW 
45nm NE 
TAF 2315/2415 VRB05KT 5000 BR BKN005 OVC012 QNH3003INS TEMPO 2315/2317 3200 BR SCT005 OVC015 BECMG 2317/2319 12006KT 8000 BR OVC009 QNH2995INS FM240400 13006KT 3200 -DZ BR OVC005 QNH2990INS T11/2315Z T15/2415Z FN20048
NOTAMs
Click for the latest NOTAMs
NOTAMs are issued by the DoD/FAA and will open in a separate window not controlled by AirNav.

 

 
 

Would you like to see your business listed on this page?

 If your business provides an interesting product or service to pilots, flight crews, aircraft, or users of the Kimzey Airport, you should consider listing it here.  To start the listing process, click on the button below
 
Add a business
 

Other Pages about Kimzey Airport

Update a link
 
Copyright © AirNav, LLC. All rights reserved. Privacy Policy  Contact